Latest Weather Observations for Lihou Reef Lighthouse

IDQ60801

Issued at 11:32 pm EST Saturday 6 February 2016 (issued every 30 minutes, with the page automatically refreshed every 10 minutes)

About weather observations | Map of weather stations | Latest weather observations for QLD | Other Formats
Station Details ID: 200880 Name: LIHOU REEF LIGHTHOUSE Lat: -17.13 Lon: 152.15 Height: 0.0 m
Data from the previous 72 hours. | See also: Recent months at Lihou Reef Lighthouse
Date/Time
EST
Temp
°C
App
Temp
°C
Dew
Point
Rel
Hum
%
Delta-T
°C
Wind Press
QNH
hPa
Press
MSL
hPa
Rain
since 9 am
mm
Dir
 
Spd
km/h
Gust
km/h
Spd
kts
Gust
kts
06/11:30pm 29.5 - - - - N 9 11 5 6 1007.6 1007.5 -
06/11:00pm 29.5 - - - - N 7 9 4 5 1007.9 1007.8 -
06/10:30pm 29.6 - - - - N 6 7 3 4 1008.1 1008.0 -
06/10:00pm 29.6 - - - - NNW 7 7 4 4 1007.9 1007.8 -
06/09:30pm 29.7 - - - - NNW 9 11 5 6 1007.8 1007.7 -
06/09:00pm 29.6 - - - - NW 9 13 5 7 1007.4 1007.3 -
06/08:30pm 29.6 - - - - NNW 11 13 6 7 1007.0 1006.9 -
06/08:00pm 29.7 - - - - N 9 11 5 6 1006.6 1006.5 -
06/07:30pm 29.7 - - - - N 11 13 6 7 1006.2 1006.1 -
06/07:00pm 29.7 - - - - NNW 17 19 9 10 1005.6 1005.5 -
06/06:30pm 29.7 - - - - NNW 15 19 8 10 1005.3 1005.2 -
06/06:00pm 29.8 - - - - NNW 15 19 8 10 1004.8 1004.7 -
06/05:30pm 29.9 - - - - NNW 19 22 10 12 1004.2 1004.1 -
06/05:00pm 29.9 - - - - NNW 20 22 11 12 1003.8 1003.7 -
06/04:30pm 29.7 - - - - NNW 20 24 11 13 1003.7 1003.6 -
06/04:00pm 29.7 - - - - NNW 19 22 10 12 1003.8 1003.7 -
06/03:30pm 29.8 - - - - NNW 22 26 12 14 1003.8 1003.7 -
06/03:00pm 29.6 - - - - NNW 22 24 12 13 1004.0 1003.9 -
06/02:30pm 29.6 - - - - NNW 22 26 12 14 1004.1 1004.0 -
06/02:00pm 29.6 - - - - NNW 20 24 11 13 1004.3 1004.2 -
06/01:30pm 29.4 - - - - N 20 24 11 13 1004.8 1004.7 -
06/01:00pm 29.4 - - - - N 20 24 11 13 1005.1 1005.0 -
06/12:30pm 29.4 - - - - N 22 24 12 13 1005.4 1005.3 -
06/12:00pm 29.3 - - - - N 24 26 13 14 1005.9 1005.8 -
06/11:30am 29.2 - - - - N 19 20 10 11 1006.5 1006.4 -
06/11:00am 29.1 - - - - N 17 19 9 10 1007.0 1006.9 -
06/10:30am 28.9 - - - - N 17 19 9 10 1006.9 1006.8 -
06/10:00am 28.9 - - - - NNE 15 17 8 9 1007.0 1006.9 -
06/09:30am 29.0 - - - - NNE 17 19 9 10 1006.7 1006.6 -
06/09:00am 29.0 - - - - N 17 19 9 10 1006.7 1006.6 -
06/08:30am 28.9 - - - - N 15 17 8 9 1006.4 1006.3 -
06/08:00am 28.7 - - - - N 11 13 6 7 1006.0 1005.9 -
06/07:30am 28.6 - - - - N 17 20 9 11 1005.7 1005.6 -
06/07:00am 28.7 - - - - N 19 20 10 11 1005.5 1005.4 -
06/06:30am 28.6 - - - - N 17 20 9 11 1005.3 1005.2 -
06/06:00am 28.3 - - - - N 11 15 6 8 1005.2 1005.1 -
06/05:30am 28.2 - - - - NNE 11 13 6 7 1004.7 1004.6 -
06/05:00am 28.2 - - - - N 9 13 5 7 1004.3 1004.2 -
06/04:30am 27.8 - - - - NNW 15 17 8 9 1004.1 1004.0 -
06/04:00am 27.4 - - - - NW 19 22 10 12 1003.9 1003.8 -
06/03:30am 27.4 - - - - WNW 22 30 12 16 1003.9 1003.8 -
06/03:00am 28.7 - - - - N 19 20 10 11 1003.7 1003.6 -
06/02:30am 28.7 - - - - N 15 17 8 9 1003.9 1003.8 -
06/02:00am 28.6 - - - - N 13 15 7 8 1004.2 1004.1 -
06/01:30am 28.6 - - - - N 13 15 7 8 1004.4 1004.3 -
06/01:00am 28.6 - - - - N 11 13 6 7 1004.5 1004.4 -
06/12:30am 28.7 - - - - NNW 11 13 6 7 1005.0 1004.9 -
06/12:00am 28.7 - - - - N 11 13 6 7 1005.5 1005.4 -
 
Date/Time
EST
Temp
°C
App
Temp
°C
Dew
Point
Rel
Hum
%
Delta-T
°C
Wind Press
QNH
hPa
Press
MSL
hPa
Rain
since 9 am
mm
Dir
 
Spd
km/h
Gust
km/h
Spd
kts
Gust
kts
05/11:30pm 28.8 - - - - N 11 13 6 7 1005.9 1005.8 -
05/11:00pm 28.6 - - - - N 13 15 7 8 1006.1 1006.0 -
05/10:30pm 28.6 - - - - N 15 17 8 9 1006.1 1006.0 -
05/10:00pm 28.6 - - - - N 15 17 8 9 1006.0 1005.9 -
05/09:30pm 28.7 - - - - NNE 17 20 9 11 1006.0 1005.9 -
05/09:00pm 28.8 - - - - NNE 19 20 10 11 1006.0 1005.9 -
05/08:30pm 28.6 - - - - NNE 17 19 9 10 1005.7 1005.6 -
05/08:00pm 28.4 - - - - NE 17 19 9 10 1005.3 1005.2 -
05/07:30pm 28.3 - - - - NE 15 19 8 10 1005.2 1005.1 -
05/07:00pm 28.3 - - - - NE 13 17 7 9 1005.2 1005.1 -
05/06:30pm 28.1 - - - - NE 11 13 6 7 1005.0 1004.9 -
05/06:00pm 27.9 - - - - NE 9 11 5 6 1004.8 1004.7 -
05/05:30pm 28.1 - - - - NE 7 11 4 6 1004.6 1004.5 -
05/05:00pm 27.8 - - - - E 4 6 2 3 1004.6 1004.5 -
05/04:30pm 27.9 - - - - E 6 6 3 3 1004.6 1004.5 -
05/04:00pm 28.3 - - - - CALM 0 0 0 0 1004.3 1004.2 -
05/03:30pm 27.9 - - - - CALM 0 2 0 1 1004.1 1004.0 -
05/03:00pm 27.7 - - - - CALM 0 2 0 1 1004.2 1004.1 -
05/02:30pm 27.6 - - - - WNW 2 4 1 2 1004.3 1004.2 -
05/02:00pm 27.2 - - - - NW 6 9 3 5 1004.4 1004.3 -
05/01:30pm 26.8 - - - - NW 9 15 5 8 1004.9 1004.8 -
05/01:00pm 26.8 - - - - WNW 22 24 12 13 1005.1 1005.0 -
05/12:30pm 26.4 - - - - WNW 26 32 14 17 1005.7 1005.6 -
05/12:00pm 25.9 - - - - WSW 20 28 11 15 1005.6 1005.5 -
05/11:30am 27.1 - - - - W 35 43 19 23 1006.4 1006.3 -
05/11:15am 28.3 - - - - NW 20 39 11 21 1006.6 1006.5 -
05/11:00am 28.9 - - - - NNW 17 20 9 11 1006.4 1006.3 -
05/10:30am 28.7 - - - - N 19 22 10 12 1006.5 1006.4 -
05/10:00am 28.6 - - - - N 17 20 9 11 1006.6 1006.5 -
05/09:30am 28.5 - - - - N 17 19 9 10 1006.3 1006.2 -
05/09:00am 28.5 - - - - N 11 13 6 7 1006.0 1005.9 -
05/08:30am 28.2 - - - - N 11 13 6 7 1005.7 1005.6 -
05/08:00am 27.7 - - - - N 7 9 4 5 1005.3 1005.2 -
05/07:30am 27.4 - - - - N 9 13 5 7 1005.3 1005.2 -
05/07:00am 27.2 - - - - N 9 13 5 7 1005.6 1005.5 -
05/06:30am 26.8 - - - - N 11 15 6 8 1005.2 1005.1 -
05/06:00am 26.2 - - - - N 9 13 5 7 1004.2 1004.1 -
05/05:30am 26.3 - - - - N 11 15 6 8 1004.5 1004.4 -
05/05:00am 26.2 - - - - NNW 17 20 9 11 1004.3 1004.2 -
05/04:30am 26.0 - - - - NNW 22 30 12 16 1004.3 1004.2 -
05/04:00am 25.6 - - - - NW 33 43 18 23 1003.9 1003.8 -
05/03:30am 27.1 - - - - W 20 35 11 19 1003.7 1003.6 -
05/03:00am 27.2 - - - - W 22 32 12 17 1003.5 1003.4 -
05/02:30am 29.0 - - - - NNW 19 22 10 12 1003.9 1003.8 -
05/02:00am 29.1 - - - - NNW 22 24 12 13 1004.0 1003.9 -
05/01:30am 29.0 - - - - NNW 20 22 11 12 1004.0 1003.9 -
05/01:00am 29.1 - - - - NNW 20 22 11 12 1004.7 1004.6 -
05/12:30am 29.0 - - - - NW 22 24 12 13 1005.4 1005.3 -
05/12:00am 29.2 - - - - NW 24 28 13 15 1005.8 1005.7 -
 
Date/Time
EST
Temp
°C
App
Temp
°C
Dew
Point
Rel
Hum
%
Delta-T
°C
Wind Press
QNH
hPa
Press
MSL
hPa
Rain
since 9 am
mm
Dir
 
Spd
km/h
Gust
km/h
Spd
kts
Gust
kts
04/11:30pm 29.1 - - - - NW 24 26 13 14 1006.2 1006.1 -
04/11:00pm 29.2 - - - - NW 22 26 12 14 1006.2 1006.1 -
04/10:30pm 29.3 - - - - NW 24 26 13 14 1006.4 1006.3 -
04/10:00pm 29.2 - - - - NW 22 28 12 15 1006.4 1006.3 -
04/09:30pm 29.2 - - - - NNW 26 30 14 16 1006.0 1005.9 -
04/09:00pm 29.2 - - - - NW 24 28 13 15 1006.0 1005.9 -
04/08:30pm 29.0 - - - - NNW 26 32 14 17 1005.4 1005.3 -
04/08:00pm 29.4 - - - - N 26 30 14 16 1004.8 1004.7 -
04/07:30pm 29.2 - - - - N 20 24 11 13 1004.6 1004.5 -
04/07:00pm 28.5 - - - - N 19 20 10 11 1004.4 1004.3 -
04/06:30pm 27.7 - - - - N 19 22 10 12 1004.2 1004.1 -
04/06:00pm 27.3 - - - - NNW 19 20 10 11 1004.5 1004.4 -
04/05:30pm 27.2 - - - - NW 19 20 10 11 1004.7 1004.6 -
04/05:00pm 27.0 - - - - WNW 19 24 10 13 1004.9 1004.8 -
04/04:30pm 27.2 - - - - WNW 30 37 16 20 1005.3 1005.2 -
04/04:00pm 28.6 - - - - NW 17 22 9 12 1005.0 1004.9 -
04/03:30pm 29.5 - - - - NW 17 20 9 11 1005.1 1005.0 -
04/03:00pm 29.6 - - - - NNW 17 19 9 10 1005.0 1004.9 -
04/02:30pm 29.6 - - - - NNW 19 22 10 12 1005.5 1005.4 -
04/02:00pm 29.5 - - - - NW 19 22 10 12 1005.8 1005.7 -
04/01:30pm 29.5 - - - - NW 20 26 11 14 1005.9 1005.8 -
04/01:00pm 29.6 - - - - NW 19 22 10 12 1005.8 1005.7 -
04/12:30pm 29.5 - - - - NNW 19 20 10 11 1006.1 1006.0 -
04/12:00pm 29.5 - - - - NNW 19 20 10 11 1006.5 1006.4 -
04/11:30am 29.5 - - - - NNW 19 22 10 12 1006.7 1006.6 -
04/11:00am 29.5 - - - - NNW 17 20 9 11 1007.1 1007.0 -
04/10:30am 29.4 - - - - NNW 17 19 9 10 1007.2 1007.1 -
04/10:00am 29.6 - - - - NNW 19 22 10 12 1007.2 1007.1 -
04/09:30am 29.5 - - - - NNW 19 20 10 11 1007.5 1007.4 -
04/09:00am 29.3 - - - - NNW 20 24 11 13 1007.7 1007.6 -
04/08:30am 29.3 - - - - NNW 20 24 11 13 1007.7 1007.6 -
04/08:00am 29.3 - - - - NNW 20 24 11 13 1007.6 1007.5 -
04/07:30am 29.2 - - - - NNW 20 24 11 13 1007.7 1007.6 -
04/07:00am 29.1 - - - - NNW 20 24 11 13 1007.4 1007.3 -
04/06:30am 29.1 - - - - NNW 20 24 11 13 1007.2 1007.1 -
04/06:00am 29.1 - - - - NNW 19 22 10 12 1007.0 1006.9 -
04/05:30am 29.0 - - - - NNW 19 22 10 12 1006.6 1006.5 -
04/05:00am 29.0 - - - - NNW 19 22 10 12 1006.4 1006.3 -
04/04:30am 29.1 - - - - NNW 20 22 11 12 1006.3 1006.2 -
04/04:00am 29.1 - - - - NNW 19 22 10 12 1006.4 1006.3 -
04/03:30am 29.1 - - - - NNW 20 22 11 12 1006.5 1006.4 -
04/03:00am 29.0 - - - - NNW 17 20 9 11 1006.5 1006.4 -
04/02:30am 29.0 - - - - NNW 15 19 8 10 1006.5 1006.4 -
04/02:00am 28.8 - - - - NNW 13 15 7 8 1006.7 1006.6 -
04/01:30am 28.8 - - - - N 15 17 8 9 1006.8 1006.7 -
04/01:00am 28.9 - - - - N 15 17 8 9 1006.9 1006.8 -
04/12:30am 28.9 - - - - N 13 17 7 9 1007.4 1007.3 -
04/12:00am 28.9 - - - - N 13 15 7 8 1007.7 1007.6 -

Other Formats:

Comma delimited format used in spreadsheet applications
http://www.bom.gov.au/fwo/IDQ60801/IDQ60801.94293.axf

JavaScript Object Notation format (JSON) in row-major order
http://www.bom.gov.au/fwo/IDQ60801/IDQ60801.94293.json